createdAt,value
2022-11-28T00:01:35.507Z,91.88
2022-11-28T00:04:08.111Z,90.97
2022-11-28T00:06:41.776Z,91.22
2022-11-28T00:09:09.062Z,91.21
2022-11-28T00:11:36.239Z,91.20
2022-11-28T00:14:03.281Z,90.85
2022-11-28T00:16:30.404Z,90.73
2022-11-28T00:19:00.918Z,91.22
2022-11-28T00:21:29.093Z,90.88
2022-11-28T00:23:56.216Z,90.88
2022-11-28T00:26:35.087Z,91.15
2022-11-28T00:29:04.012Z,91.59
2022-11-28T00:31:42.731Z,91.65
2022-11-28T00:34:13.760Z,91.53
2022-11-28T00:36:45.488Z,91.74
2022-11-28T00:39:13.582Z,91.96
2022-11-28T00:41:40.824Z,91.62
2022-11-28T00:44:08.485Z,91.78
2022-11-28T00:46:36.195Z,92.00
2022-11-28T00:49:03.667Z,91.87
2022-11-28T00:51:33.482Z,91.63
2022-11-28T00:54:03.293Z,91.41
2022-11-28T00:56:37.947Z,91.68
2022-11-28T00:59:05.966Z,91.65
2022-11-28T01:01:43.926Z,91.96
2022-11-28T01:04:15.495Z,91.74
2022-11-28T01:06:50.583Z,91.57
2022-11-28T01:09:23.653Z,91.76
2022-11-28T01:11:53.819Z,91.84
2022-11-28T01:14:24.736Z,92.11
2022-11-28T01:16:52.725Z,92.12
2022-11-28T01:19:19.948Z,91.87
2022-11-28T01:21:47.014Z,92.05
2022-11-28T01:24:14.610Z,92.38
2022-11-28T01:26:42.634Z,92.36
2022-11-28T01:29:10.598Z,92.31
2022-11-28T01:31:39.509Z,92.45
2022-11-28T01:34:06.670Z,92.23
2022-11-28T01:36:33.793Z,92.59
2022-11-28T01:39:00.767Z,92.38
2022-11-28T01:41:28.990Z,92.62
2022-11-28T01:44:14.681Z,92.73
2022-11-28T01:46:42.404Z,92.99
2022-11-28T01:49:28.451Z,92.89
2022-11-28T01:52:04.737Z,92.92
2022-11-28T01:54:35.727Z,92.82
2022-11-28T01:57:08.137Z,93.01
2022-11-28T01:59:51.193Z,92.93
2022-11-28T02:02:29.967Z,93.04
2022-11-28T02:04:58.823Z,92.92
2022-11-28T02:07:26.954Z,92.88
2022-11-28T02:09:54.205Z,93.04
2022-11-28T02:12:51.397Z,93.08
2022-11-28T02:15:50.728Z,93.58
2022-11-28T02:18:37.424Z,93.81
2022-11-28T02:21:24.895Z,94.45
2022-11-28T02:24:31.688Z,94.59
2022-11-28T02:27:11.809Z,95.11
2022-11-28T02:30:10.957Z,95.38
2022-11-28T02:33:12.681Z,95.59
2022-11-28T02:35:59.333Z,95.73
2022-11-28T02:38:57.199Z,95.98
2022-11-28T02:41:42.982Z,96.22
2022-11-28T02:44:17.988Z,96.43
2022-11-28T02:46:48.043Z,96.58
2022-11-28T02:49:29.517Z,96.59
2022-11-28T02:52:09.759Z,96.67
2022-11-28T02:54:39.665Z,96.67
2022-11-28T02:57:08.851Z,96.87
2022-11-28T02:59:38.543Z,97.03
2022-11-28T03:02:22.904Z,97.07
2022-11-28T03:05:27.352Z,97.03
2022-11-28T03:08:38.851Z,96.92
2022-11-28T03:11:39.792Z,97.05
2022-11-28T03:14:53.157Z,97.19
2022-11-28T03:18:06.906Z,97.38
2022-11-28T03:20:47.586Z,97.40
2022-11-28T03:23:20.998Z,97.25
2022-11-28T03:26:22.574Z,97.38
2022-11-28T03:28:58.495Z,97.43
2022-11-28T03:31:36.401Z,97.56
2022-11-28T03:34:09.392Z,97.66
2022-11-28T03:36:51.070Z,97.76
2022-11-28T03:39:24.408Z,97.79
2022-11-28T03:42:03.651Z,97.68
2022-11-28T03:44:48.035Z,97.87
2022-11-28T03:47:15.577Z,98.11
2022-11-28T03:49:51.470Z,98.24
2022-11-28T03:52:36.590Z,98.13
2022-11-28T03:55:12.789Z,98.34
2022-11-28T03:57:49.791Z,98.39
2022-11-28T04:00:17.766Z,98.68
2022-11-28T04:03:11.437Z,98.59
2022-11-28T04:05:48.273Z,98.82
2022-11-28T04:08:43.394Z,98.50
2022-11-28T04:11:18.950Z,98.70
2022-11-28T04:13:56.380Z,98.90
2022-11-28T04:16:37.524Z,99.25
2022-11-28T04:20:00.643Z,99.10
2022-11-28T04:22:35.823Z,99.25
2022-11-28T04:25:11.018Z,99.28
2022-11-28T04:27:47.071Z,99.36
2022-11-28T04:30:15.482Z,99.39
2022-11-28T04:32:52.088Z,99.53
2022-11-28T04:35:29.871Z,99.61
2022-11-28T04:38:00.614Z,99.50
2022-11-28T04:40:35.254Z,99.68
2022-11-28T04:43:12.096Z,99.53
2022-11-28T04:45:49.688Z,99.58
2022-11-28T04:48:17.630Z,99.56
2022-11-28T04:51:21.908Z,99.71
2022-11-28T04:54:11.717Z,99.70
2022-11-28T04:56:47.294Z,99.63
2022-11-28T04:59:22.084Z,99.66
2022-11-28T05:01:50.388Z,99.78
2022-11-28T05:04:17.798Z,99.95
2022-11-28T05:06:45.481Z,100.00
2022-11-28T05:09:13.889Z,99.88
2022-11-28T05:11:41.938Z,100.00
2022-11-28T05:14:09.100Z,100.00
2022-11-28T05:16:36.298Z,99.95
2022-11-28T05:19:03.465Z,100.00
2022-11-28T05:21:30.458Z,100.00
2022-11-28T05:23:57.472Z,100.00
2022-11-28T05:26:25.994Z,100.00
2022-11-28T05:28:53.734Z,100.00
2022-11-28T05:31:21.898Z,100.00
2022-11-28T05:33:49.024Z,100.00
2022-11-28T05:36:17.573Z,100.00
2022-11-28T05:38:45.519Z,100.00
2022-11-28T05:41:24.087Z,100.00
2022-11-28T05:43:52.266Z,100.00
2022-11-28T05:46:20.789Z,100.00
2022-11-28T05:48:48.085Z,100.00
2022-11-28T05:51:15.601Z,100.00
2022-11-28T05:53:42.810Z,100.00
2022-11-28T05:56:15.350Z,100.00
2022-11-28T05:58:43.307Z,100.00
2022-11-28T06:01:12.418Z,100.00
2022-11-28T06:03:40.047Z,100.00
2022-11-28T06:06:17.784Z,100.00
2022-11-28T06:08:47.812Z,100.00
2022-11-28T06:11:16.491Z,100.00
2022-11-28T06:13:45.488Z,100.00
2022-11-28T06:16:26.229Z,100.00
2022-11-28T06:19:00.464Z,99.69
2022-11-28T06:21:28.795Z,99.17
2022-11-28T06:23:58.285Z,98.96
2022-11-28T06:26:29.510Z,98.61
2022-11-28T06:28:57.054Z,98.60
2022-11-28T06:31:28.623Z,98.29
2022-11-28T06:33:57.299Z,98.21
2022-11-28T06:36:26.414Z,98.56
2022-11-28T06:38:54.312Z,98.53
2022-11-28T06:41:22.930Z,98.78
2022-11-28T06:43:50.942Z,98.90
2022-11-28T06:46:21.253Z,98.96
2022-11-28T06:48:51.534Z,99.08
2022-11-28T06:51:21.209Z,99.19
2022-11-28T06:53:50.450Z,99.27
2022-11-28T06:56:20.019Z,99.44
2022-11-28T06:58:53.388Z,99.69
2022-11-28T07:01:24.743Z,99.82
2022-11-28T07:03:54.404Z,99.73
2022-11-28T07:06:24.483Z,99.81
2022-11-28T07:08:51.695Z,99.94
2022-11-28T07:11:24.933Z,99.93
2022-11-28T07:13:55.041Z,99.84
2022-11-28T07:16:31.757Z,100.00
2022-11-28T07:19:00.551Z,100.00
2022-11-28T07:21:29.079Z,100.00
2022-11-28T07:23:59.649Z,100.00
2022-11-28T07:26:26.886Z,100.00
2022-11-28T07:28:56.072Z,100.00
2022-11-28T07:31:32.030Z,100.00
2022-11-28T07:34:05.483Z,100.00
2022-11-28T07:36:32.923Z,100.00
2022-11-28T07:39:03.452Z,100.00
2022-11-28T07:41:30.773Z,100.00
2022-11-28T07:44:02.255Z,100.00
2022-11-28T07:46:32.115Z,100.00
2022-11-28T07:49:00.205Z,100.00
2022-11-28T07:51:31.486Z,100.00
2022-11-28T07:53:59.394Z,100.00
2022-11-28T07:56:50.160Z,100.00
2022-11-28T07:59:18.095Z,100.00
2022-11-28T08:01:45.161Z,100.00
2022-11-28T08:04:18.241Z,100.00
2022-11-28T08:06:45.677Z,100.00
2022-11-28T08:09:12.762Z,100.00
2022-11-28T08:11:40.382Z,100.00
2022-11-28T08:14:07.775Z,100.00
2022-11-28T08:16:36.792Z,100.00
2022-11-28T08:19:03.997Z,100.00
2022-11-28T08:21:33.411Z,100.00
2022-11-28T08:24:02.750Z,100.00
2022-11-28T08:26:33.650Z,100.00
2022-11-28T08:29:02.966Z,100.00
2022-11-28T08:31:36.823Z,100.00
2022-11-28T08:34:08.066Z,100.00
2022-11-28T08:36:35.447Z,100.00
2022-11-28T08:39:22.910Z,100.00
2022-11-28T08:41:50.992Z,100.00
2022-11-28T08:44:18.160Z,100.00
2022-11-28T08:46:45.195Z,100.00
2022-11-28T08:49:18.407Z,100.00
2022-11-28T08:51:45.771Z,100.00
2022-11-28T08:54:12.905Z,100.00
2022-11-28T08:56:39.923Z,100.00
2022-11-28T08:59:07.338Z,100.00
2022-11-28T09:01:34.663Z,100.00
2022-11-28T09:04:01.848Z,100.00
2022-11-28T09:06:28.839Z,100.00
2022-11-28T09:08:56.021Z,100.00
2022-11-28T09:11:23.899Z,100.00
2022-11-28T09:13:51.275Z,100.00
2022-11-28T09:16:19.370Z,100.00
2022-11-28T09:18:46.506Z,100.00
2022-11-28T09:21:15.716Z,100.00
2022-11-28T09:23:44.584Z,100.00
2022-11-28T09:26:18.750Z,100.00
2022-11-28T09:28:47.150Z,100.00
2022-11-28T09:31:17.013Z,100.00
2022-11-28T09:33:46.245Z,100.00
2022-11-28T09:36:18.301Z,100.00
2022-11-28T09:38:45.834Z,100.00
2022-11-28T09:41:42.354Z,100.00
2022-11-28T09:44:19.937Z,100.00
2022-11-28T09:46:52.218Z,100.00
2022-11-28T09:49:40.403Z,100.00
2022-11-28T09:52:36.541Z,100.00
2022-11-28T09:55:32.366Z,100.00
2022-11-28T09:58:09.355Z,100.00
2022-11-28T10:00:55.562Z,100.00
2022-11-28T10:03:28.412Z,100.00
2022-11-28T10:06:27.066Z,100.00
2022-11-28T10:09:28.260Z,100.00
2022-11-28T10:12:40.335Z,100.00
2022-11-28T10:15:42.865Z,100.00
2022-11-28T10:18:38.043Z,100.00
2022-11-28T10:21:18.157Z,100.00
2022-11-28T10:23:47.971Z,100.00
2022-11-28T10:26:43.079Z,100.00
2022-11-28T10:29:41.473Z,100.00
2022-11-28T10:32:17.442Z,100.00
2022-11-28T10:35:04.475Z,100.00
2022-11-28T10:37:36.853Z,100.00
2022-11-28T10:40:58.781Z,100.00
2022-11-28T10:43:44.730Z,100.00
2022-11-28T10:46:33.112Z,100.00
2022-11-28T10:49:09.096Z,100.00
2022-11-28T10:52:04.223Z,100.00
2022-11-28T10:54:59.061Z,100.00
2022-11-28T10:57:54.207Z,100.00
2022-11-28T11:00:21.402Z,100.00
2022-11-28T11:02:48.433Z,100.00
2022-11-28T11:05:33.631Z,100.00
2022-11-28T11:08:23.804Z,100.00
2022-11-28T11:11:27.843Z,100.00
2022-11-28T11:14:11.094Z,100.00
2022-11-28T11:16:58.560Z,100.00
2022-11-28T11:19:44.051Z,100.00
2022-11-28T11:22:29.213Z,100.00
2022-11-28T11:25:05.125Z,100.00
2022-11-28T11:27:37.455Z,100.00
2022-11-28T11:30:46.005Z,100.00
2022-11-28T11:33:17.622Z,100.00
2022-11-28T11:35:49.564Z,100.00
2022-11-28T11:38:34.785Z,100.00
2022-11-28T11:41:29.723Z,100.00
2022-11-28T11:44:14.957Z,100.00
2022-11-28T11:47:05.404Z,100.00
2022-11-28T11:49:44.977Z,100.00
2022-11-28T11:52:15.006Z,100.00
2022-11-28T11:54:59.336Z,100.00
2022-11-28T11:57:39.630Z,100.00
2022-11-28T12:00:09.528Z,100.00
2022-11-28T12:02:46.929Z,100.00
2022-11-28T12:05:23.602Z,100.00
2022-11-28T12:08:11.835Z,100.00
2022-11-28T12:11:13.620Z,100.00
2022-11-28T12:13:40.898Z,100.00
2022-11-28T12:16:50.682Z,100.00
2022-11-28T12:19:32.879Z,100.00
2022-11-28T12:22:35.242Z,100.00
2022-11-28T12:25:37.427Z,100.00
2022-11-28T12:28:48.680Z,100.00
2022-11-28T12:31:46.260Z,100.00
2022-11-28T12:34:36.395Z,100.00
2022-11-28T12:37:09.514Z,100.00
2022-11-28T12:40:07.043Z,100.00
2022-11-28T12:43:04.991Z,100.00
2022-11-28T12:46:00.362Z,100.00
2022-11-28T12:49:01.706Z,100.00
2022-11-28T12:52:13.443Z,100.00
2022-11-28T12:55:36.558Z,100.00
2022-11-28T12:58:45.776Z,100.00
2022-11-28T13:01:56.059Z,100.00
2022-11-28T13:04:42.273Z,100.00
2022-11-28T13:07:48.782Z,100.00
2022-11-28T13:10:31.491Z,100.00
2022-11-28T13:13:13.601Z,100.00
2022-11-28T13:16:15.617Z,100.00
2022-11-28T13:18:54.276Z,100.00
2022-11-28T13:22:02.318Z,100.00
2022-11-28T13:24:43.618Z,100.00
2022-11-28T13:27:32.579Z,100.00
2022-11-28T13:30:20.578Z,100.00
2022-11-28T13:32:53.605Z,100.00
2022-11-28T13:35:22.434Z,100.00
2022-11-28T13:41:35.183Z,100.00
2022-11-28T13:44:15.627Z,100.00
2022-11-28T13:46:45.985Z,100.00
2022-11-28T13:49:26.793Z,100.00
2022-11-28T13:52:25.741Z,100.00
2022-11-28T13:54:54.994Z,100.00
2022-11-28T13:57:38.928Z,100.00
2022-11-28T14:00:23.979Z,100.00
2022-11-28T14:02:59.881Z,100.00
2022-11-28T14:05:41.579Z,100.00
2022-11-28T14:08:33.107Z,100.00
2022-11-28T14:11:27.245Z,100.00
2022-11-28T14:14:34.958Z,100.00
2022-11-28T14:17:23.907Z,100.00
2022-11-28T14:20:05.228Z,100.00
2022-11-28T14:23:21.761Z,100.00
2022-11-28T14:25:54.677Z,100.00
2022-11-28T14:28:36.921Z,100.00
2022-11-28T14:31:35.558Z,100.00
2022-11-28T14:34:47.187Z,100.00
2022-11-28T14:37:27.224Z,100.00
2022-11-28T14:40:51.256Z,100.00
2022-11-28T14:43:46.284Z,100.00
2022-11-28T14:46:16.695Z,100.00
2022-11-28T14:48:59.146Z,100.00
2022-11-28T14:51:48.230Z,100.00
2022-11-28T14:54:37.226Z,100.00
2022-11-28T14:57:18.674Z,100.00
2022-11-28T14:59:48.107Z,100.00
2022-11-28T15:03:02.076Z,100.00
2022-11-28T15:05:45.245Z,100.00
2022-11-28T15:08:33.787Z,100.00
2022-11-28T15:11:25.295Z,100.00
2022-11-28T15:14:19.243Z,100.00
2022-11-28T15:16:50.837Z,100.00
2022-11-28T15:19:20.154Z,100.00
2022-11-28T15:21:53.233Z,100.00
2022-11-28T15:24:38.402Z,100.00
2022-11-28T15:27:08.677Z,100.00
2022-11-28T15:29:36.956Z,100.00
2022-11-28T15:32:05.513Z,100.00
2022-11-28T15:34:38.406Z,100.00
2022-11-28T15:37:19.650Z,100.00
2022-11-28T15:39:49.757Z,100.00
2022-11-28T15:42:33.293Z,100.00
2022-11-28T15:45:22.027Z,100.00
2022-11-28T15:47:52.215Z,100.00
2022-11-28T15:50:27.212Z,100.00
2022-11-28T15:53:02.275Z,100.00
2022-11-28T15:55:33.726Z,100.00
2022-11-28T15:58:31.376Z,100.00
2022-11-28T16:01:27.384Z,100.00
2022-11-28T16:04:14.854Z,100.00
2022-11-28T16:06:50.089Z,100.00
2022-11-28T16:09:20.405Z,100.00
2022-11-28T16:11:54.013Z,100.00
2022-11-28T16:14:31.011Z,100.00
2022-11-28T16:17:01.887Z,100.00
2022-11-28T16:19:33.589Z,100.00
2022-11-28T16:22:11.667Z,100.00
2022-11-28T16:24:55.424Z,100.00
2022-11-28T16:27:42.720Z,100.00
2022-11-28T16:30:28.833Z,100.00
2022-11-28T16:32:57.303Z,100.00
2022-11-28T16:35:40.622Z,100.00
2022-11-28T16:38:24.063Z,100.00
2022-11-28T16:41:01.163Z,100.00
2022-11-28T16:43:41.271Z,100.00
2022-11-28T16:46:24.186Z,100.00
2022-11-28T16:48:59.552Z,100.00
2022-11-28T16:51:26.521Z,100.00
2022-11-28T16:53:57.435Z,100.00
2022-11-28T16:56:25.425Z,100.00
2022-11-28T16:59:08.763Z,100.00
2022-11-28T17:01:36.919Z,100.00
2022-11-28T17:04:04.568Z,100.00
2022-11-28T17:06:39.209Z,100.00
2022-11-28T17:09:11.776Z,100.00
2022-11-28T17:11:45.160Z,100.00
2022-11-28T17:14:14.209Z,100.00
2022-11-28T17:16:42.909Z,100.00
2022-11-28T17:19:12.098Z,100.00
2022-11-28T17:21:53.186Z,100.00
2022-11-28T17:24:24.227Z,100.00
2022-11-28T17:26:53.789Z,100.00
2022-11-28T17:29:22.982Z,100.00
2022-11-28T17:31:50.280Z,100.00
2022-11-28T17:34:22.505Z,100.00
2022-11-28T17:36:50.883Z,100.00
2022-11-28T17:39:20.216Z,100.00
2022-11-28T17:41:47.933Z,100.00
2022-11-28T17:44:39.026Z,100.00
2022-11-28T17:47:06.101Z,100.00
2022-11-28T17:49:34.295Z,100.00
2022-11-28T17:52:02.400Z,100.00
2022-11-28T17:54:30.382Z,100.00
2022-11-28T17:56:57.588Z,100.00
2022-11-28T17:59:26.996Z,100.00
2022-11-28T18:01:54.311Z,100.00
2022-11-28T18:04:26.199Z,100.00
2022-11-28T18:06:53.462Z,100.00
2022-11-28T18:09:20.559Z,100.00
2022-11-28T18:11:47.581Z,100.00
2022-11-28T18:14:19.235Z,100.00
2022-11-28T18:16:46.929Z,100.00
2022-11-28T18:19:14.276Z,100.00
2022-11-28T18:21:42.322Z,100.00
2022-11-28T18:24:09.758Z,100.00
2022-11-28T18:26:37.695Z,100.00
2022-11-28T18:29:07.155Z,100.00
2022-11-28T18:31:35.452Z,100.00
2022-11-28T18:34:05.499Z,100.00
2022-11-28T18:36:37.570Z,100.00
2022-11-28T18:39:13.236Z,100.00
2022-11-28T18:41:41.125Z,100.00
2022-11-28T18:44:10.795Z,100.00
2022-11-28T18:46:39.788Z,100.00
2022-11-28T18:49:12.900Z,100.00
2022-11-28T18:51:45.450Z,100.00
2022-11-28T18:54:17.623Z,100.00
2022-11-28T18:56:51.079Z,100.00
2022-11-28T18:59:19.662Z,100.00
2022-11-28T19:01:46.749Z,100.00
2022-11-28T19:04:15.506Z,100.00
2022-11-28T19:06:46.847Z,100.00
2022-11-28T19:09:17.803Z,100.00
2022-11-28T19:11:46.891Z,100.00
2022-11-28T19:14:21.224Z,100.00
2022-11-28T19:16:49.463Z,100.00
2022-11-28T19:19:18.332Z,100.00
2022-11-28T19:21:48.435Z,100.00
2022-11-28T19:24:15.667Z,100.00
2022-11-28T19:26:42.795Z,100.00
2022-11-28T19:29:10.041Z,100.00
2022-11-28T19:31:41.955Z,100.00
2022-11-28T19:34:16.102Z,100.00
2022-11-28T19:36:50.003Z,100.00
2022-11-28T19:39:25.510Z,100.00
2022-11-28T19:41:54.169Z,100.00
2022-11-28T19:44:23.976Z,100.00
2022-11-28T19:46:52.877Z,100.00
2022-11-28T19:49:25.501Z,100.00
2022-11-28T19:51:54.422Z,100.00
2022-11-28T19:54:21.721Z,100.00
2022-11-28T19:56:50.769Z,100.00
2022-11-28T19:59:19.299Z,100.00
2022-11-28T20:01:49.030Z,100.00
2022-11-28T20:04:16.964Z,100.00
2022-11-28T20:06:47.038Z,100.00
2022-11-28T20:09:14.137Z,100.00
2022-11-28T20:11:43.609Z,100.00
2022-11-28T20:14:19.327Z,100.00
2022-11-28T20:16:48.683Z,100.00
2022-11-28T20:19:17.709Z,100.00
2022-11-28T20:21:46.569Z,100.00
2022-11-28T20:24:15.047Z,100.00
2022-11-28T20:26:44.456Z,100.00
2022-11-28T20:29:16.301Z,100.00
2022-11-28T20:31:46.741Z,100.00
2022-11-28T20:34:18.088Z,100.00
2022-11-28T20:36:51.356Z,100.00
2022-11-28T20:39:19.157Z,100.00
2022-11-28T20:41:46.208Z,100.00
2022-11-28T20:44:13.235Z,100.00
2022-11-28T20:46:40.282Z,100.00
2022-11-28T20:49:07.654Z,100.00
2022-11-28T20:51:36.099Z,100.00
2022-11-28T20:54:06.240Z,100.00
2022-11-28T20:57:05.031Z,100.00
2022-11-28T20:59:27.583Z,100.00
2022-11-28T21:01:54.622Z,100.00
2022-11-28T21:04:21.646Z,100.00
2022-11-28T21:06:49.402Z,100.00
2022-11-28T21:09:19.987Z,100.00
2022-11-28T21:11:58.105Z,100.00
2022-11-28T21:14:30.034Z,100.00
2022-11-28T21:16:58.402Z,100.00
2022-11-28T21:19:26.017Z,100.00
2022-11-28T21:21:53.210Z,100.00
2022-11-28T21:24:20.418Z,100.00
2022-11-28T21:26:54.701Z,100.00
2022-11-28T21:29:24.013Z,100.00
2022-11-28T21:31:52.378Z,100.00
2022-11-28T21:34:19.780Z,100.00
2022-11-28T21:36:47.992Z,100.00
2022-11-28T21:39:19.888Z,100.00
2022-11-28T21:41:47.840Z,100.00
2022-11-28T21:44:15.012Z,100.00
2022-11-28T21:46:43.956Z,100.00
2022-11-28T21:49:12.454Z,100.00
2022-11-28T21:51:40.767Z,100.00
2022-11-28T21:54:10.768Z,100.00
2022-11-28T21:56:37.985Z,100.00
2022-11-28T21:59:05.567Z,100.00
2022-11-28T22:01:38.628Z,100.00
2022-11-28T22:04:06.457Z,100.00
2022-11-28T22:06:33.704Z,100.00
2022-11-28T22:11:49.989Z,100.00
2022-11-28T22:14:17.877Z,100.00
2022-11-28T22:16:45.054Z,100.00
2022-11-28T22:19:13.662Z,100.00
2022-11-28T22:21:53.415Z,100.00
2022-11-28T22:24:22.524Z,100.00
2022-11-28T22:26:50.773Z,100.00
2022-11-28T22:29:18.843Z,100.00
2022-11-28T22:31:46.370Z,100.00
2022-11-28T22:34:13.758Z,100.00
2022-11-28T22:36:41.010Z,100.00
2022-11-28T22:39:11.297Z,100.00
2022-11-28T22:41:38.418Z,100.00
2022-11-28T22:44:05.796Z,100.00
2022-11-28T22:46:33.621Z,100.00
2022-11-28T22:49:01.221Z,100.00
2022-11-28T22:51:30.907Z,100.00
2022-11-28T22:54:01.281Z,100.00
2022-11-28T22:56:32.528Z,100.00
2022-11-28T22:59:00.909Z,100.00
2022-11-28T23:01:31.394Z,100.00
2022-11-28T23:04:00.067Z,100.00
2022-11-28T23:06:32.690Z,100.00
2022-11-28T23:09:04.965Z,100.00
2022-11-28T23:11:36.044Z,100.00
2022-11-28T23:14:04.919Z,100.00
2022-11-28T23:16:39.914Z,100.00
2022-11-28T23:19:16.172Z,100.00
2022-11-28T23:21:48.140Z,100.00
2022-11-28T23:24:22.082Z,100.00
2022-11-28T23:26:51.263Z,100.00
2022-11-28T23:29:20.148Z,100.00
2022-11-28T23:31:49.295Z,100.00
2022-11-28T23:34:17.438Z,100.00
2022-11-28T23:36:47.946Z,100.00
2022-11-28T23:39:20.996Z,100.00
2022-11-28T23:41:48.839Z,100.00
2022-11-28T23:44:19.226Z,100.00
2022-11-28T23:46:48.156Z,100.00
2022-11-28T23:49:15.371Z,100.00
2022-11-28T23:51:42.669Z,100.00
2022-11-28T23:54:11.222Z,100.00
2022-11-28T23:56:40.118Z,100.00
2022-11-28T23:59:11.490Z,100.00
